sensor_id;sensor_type;location;lat;lon;timestamp;pressure;altitude;pressure_sealevel;temperature;humidity
13612;BME280;6877;51.436;6.774;2023-04-23T00:01:44;100343.00;;;8.59;100.00
13612;BME280;6877;51.436;6.774;2023-04-23T00:04:14;100341.28;;;8.58;100.00
13612;BME280;6877;51.436;6.774;2023-04-23T00:06:45;100343.88;;;8.58;100.00
13612;BME280;6877;51.436;6.774;2023-04-23T00:09:17;100351.72;;;8.56;100.00
13612;BME280;6877;51.436;6.774;2023-04-23T00:11:44;100357.03;;;8.52;100.00
13612;BME280;6877;51.436;6.774;2023-04-23T00:14:16;100344.06;;;8.47;100.00
13612;BME280;6877;51.436;6.774;2023-04-23T00:16:42;100343.25;;;8.45;100.00
13612;BME280;6877;51.436;6.774;2023-04-23T00:19:09;100336.31;;;8.43;100.00
13612;BME280;6877;51.436;6.774;2023-04-23T00:21:35;100338.94;;;8.41;100.00
13612;BME280;6877;51.436;6.774;2023-04-23T00:24:02;100331.97;;;8.42;100.00
13612;BME280;6877;51.436;6.774;2023-04-23T00:26:28;100335.41;;;8.45;100.00
13612;BME280;6877;51.436;6.774;2023-04-23T00:28:59;100334.47;;;8.48;100.00
13612;BME280;6877;51.436;6.774;2023-04-23T00:31:26;100331.91;;;8.46;100.00
13612;BME280;6877;51.436;6.774;2023-04-23T00:33:52;100342.38;;;8.43;100.00
13612;BME280;6877;51.436;6.774;2023-04-23T00:36:24;100340.69;;;8.42;100.00
13612;BME280;6877;51.436;6.774;2023-04-23T00:38:56;100336.28;;;8.46;100.00
13612;BME280;6877;51.436;6.774;2023-04-23T00:41:22;100332.72;;;8.50;100.00
13612;BME280;6877;51.436;6.774;2023-04-23T00:43:49;100335.25;;;8.54;100.00
13612;BME280;6877;51.436;6.774;2023-04-23T00:46:24;100332.63;;;8.56;100.00
13612;BME280;6877;51.436;6.774;2023-04-23T00:48:51;100323.03;;;8.56;100.00
13612;BME280;6877;51.436;6.774;2023-04-23T00:51:23;100327.38;;;8.57;100.00
13612;BME280;6877;51.436;6.774;2023-04-23T00:53:50;100324.69;;;8.61;100.00
13612;BME280;6877;51.436;6.774;2023-04-23T00:56:17;100318.56;;;8.63;100.00
13612;BME280;6877;51.436;6.774;2023-04-23T00:58:49;100316.75;;;8.67;100.00
13612;BME280;6877;51.436;6.774;2023-04-23T01:01:17;100313.34;;;8.65;100.00
13612;BME280;6877;51.436;6.774;2023-04-23T01:03:50;100320.38;;;8.61;100.00
13612;BME280;6877;51.436;6.774;2023-04-23T01:06:22;100336.06;;;8.56;100.00
13612;BME280;6877;51.436;6.774;2023-04-23T01:08:55;100331.78;;;8.54;100.00
13612;BME280;6877;51.436;6.774;2023-04-23T01:11:22;100324.00;;;8.51;100.00
13612;BME280;6877;51.436;6.774;2023-04-23T01:13:49;100322.31;;;8.48;100.00
13612;BME280;6877;51.436;6.774;2023-04-23T01:16:16;100323.25;;;8.44;100.00
13612;BME280;6877;51.436;6.774;2023-04-23T01:18:47;100321.56;;;8.40;100.00
13612;BME280;6877;51.436;6.774;2023-04-23T01:21:19;100313.81;;;8.35;100.00
13612;BME280;6877;51.436;6.774;2023-04-23T01:23:45;100310.34;;;8.33;100.00
13612;BME280;6877;51.436;6.774;2023-04-23T01:26:12;100319.09;;;8.31;100.00
13612;BME280;6877;51.436;6.774;2023-04-23T01:28:41;100313.03;;;8.29;100.00
13612;BME280;6877;51.436;6.774;2023-04-23T01:31:08;100304.34;;;8.28;100.00
13612;BME280;6877;51.436;6.774;2023-04-23T01:33:35;100299.22;;;8.24;100.00
13612;BME280;6877;51.436;6.774;2023-04-23T01:36:01;100298.47;;;8.17;100.00
13612;BME280;6877;51.436;6.774;2023-04-23T01:38:34;100301.97;;;8.13;100.00
13612;BME280;6877;51.436;6.774;2023-04-23T01:41:01;100294.19;;;8.11;100.00
13612;BME280;6877;51.436;6.774;2023-04-23T01:43:32;100295.06;;;8.12;100.00
13612;BME280;6877;51.436;6.774;2023-04-23T01:46:04;100298.59;;;8.08;100.00
13612;BME280;6877;51.436;6.774;2023-04-23T01:48:36;100298.66;;;8.05;100.00
13612;BME280;6877;51.436;6.774;2023-04-23T01:51:03;100300.41;;;8.03;100.00
13612;BME280;6877;51.436;6.774;2023-04-23T01:53:34;100294.44;;;7.96;100.00
13612;BME280;6877;51.436;6.774;2023-04-23T01:56:07;100298.84;;;7.91;100.00
13612;BME280;6877;51.436;6.774;2023-04-23T01:58:40;100288.50;;;7.86;100.00
13612;BME280;6877;51.436;6.774;2023-04-23T02:01:06;100292.84;;;7.86;100.00
13612;BME280;6877;51.436;6.774;2023-04-23T02:03:40;100293.66;;;7.88;100.00
13612;BME280;6877;51.436;6.774;2023-04-23T02:06:11;100300.66;;;7.86;100.00
13612;BME280;6877;51.436;6.774;2023-04-23T02:08:43;100287.69;;;7.81;100.00
13612;BME280;6877;51.436;6.774;2023-04-23T02:11:14;100286.88;;;7.79;100.00
13612;BME280;6877;51.436;6.774;2023-04-23T02:13:41;100289.53;;;7.76;100.00
13612;BME280;6877;51.436;6.774;2023-04-23T02:16:07;100290.38;;;7.75;100.00
13612;BME280;6877;51.436;6.774;2023-04-23T02:18:33;100293.03;;;7.74;100.00
13612;BME280;6877;51.436;6.774;2023-04-23T02:21:05;100293.13;;;7.68;100.00
13612;BME280;6877;51.436;6.774;2023-04-23T02:23:31;100293.16;;;7.66;100.00
13612;BME280;6877;51.436;6.774;2023-04-23T02:26:03;100299.25;;;7.63;100.00
13612;BME280;6877;51.436;6.774;2023-04-23T02:28:34;100292.38;;;7.58;100.00
13612;BME280;6877;51.436;6.774;2023-04-23T02:31:00;100294.91;;;7.62;100.00
13612;BME280;6877;51.436;6.774;2023-04-23T02:33:32;100295.88;;;7.57;100.00
13612;BME280;6877;51.436;6.774;2023-04-23T02:35:58;100288.06;;;7.55;100.00
13612;BME280;6877;51.436;6.774;2023-04-23T02:38:24;100294.13;;;7.57;100.00
13612;BME280;6877;51.436;6.774;2023-04-23T02:40:56;100283.75;;;7.54;100.00
13612;BME280;6877;51.436;6.774;2023-04-23T02:43:27;100272.53;;;7.49;100.00
13612;BME280;6877;51.436;6.774;2023-04-23T02:45:54;100284.72;;;7.47;100.00
13612;BME280;6877;51.436;6.774;2023-04-23T02:48:20;100284.78;;;7.44;100.00
13612;BME280;6877;51.436;6.774;2023-04-23T02:50:47;100282.97;;;7.46;100.00
13612;BME280;6877;51.436;6.774;2023-04-23T02:53:14;100282.09;;;7.49;100.00
13612;BME280;6877;51.436;6.774;2023-04-23T02:55:40;100277.66;;;7.55;100.00
13612;BME280;6877;51.436;6.774;2023-04-23T02:58:06;100280.09;;;7.68;100.00
13612;BME280;6877;51.436;6.774;2023-04-23T03:00:38;100274.72;;;7.80;100.00
13612;BME280;6877;51.436;6.774;2023-04-23T03:03:04;100278.13;;;7.85;100.00
13612;BME280;6877;51.436;6.774;2023-04-23T03:05:31;100274.53;;;7.90;100.00
13612;BME280;6877;51.436;6.774;2023-04-23T03:07:57;100275.38;;;7.91;100.00
13612;BME280;6877;51.436;6.774;2023-04-23T03:10:24;100273.66;;;7.92;100.00
13612;BME280;6877;51.436;6.774;2023-04-23T03:12:50;100278.88;;;7.90;100.00
13612;BME280;6877;51.436;6.774;2023-04-23T03:15:17;100268.47;;;7.90;100.00
13612;BME280;6877;51.436;6.774;2023-04-23T03:17:48;100272.84;;;7.88;100.00
13612;BME280;6877;51.436;6.774;2023-04-23T03:20:17;100267.75;;;7.80;100.00
13612;BME280;6877;51.436;6.774;2023-04-23T03:22:44;100264.25;;;7.81;100.00
13612;BME280;6877;51.436;6.774;2023-04-23T03:25:11;100270.31;;;7.83;100.00
13612;BME280;6877;51.436;6.774;2023-04-23T03:27:42;100265.09;;;7.85;100.00
13612;BME280;6877;51.436;6.774;2023-04-23T03:30:09;100259.03;;;7.81;100.00
13612;BME280;6877;51.436;6.774;2023-04-23T03:32:36;100255.63;;;7.79;100.00
13612;BME280;6877;51.436;6.774;2023-04-23T03:35:04;100251.31;;;7.75;100.00
13612;BME280;6877;51.436;6.774;2023-04-23T03:37:30;100260.94;;;7.72;100.00
13612;BME280;6877;51.436;6.774;2023-04-23T03:40:02;100251.41;;;7.71;100.00
13612;BME280;6877;51.436;6.774;2023-04-23T03:42:32;100254.03;;;7.68;100.00
13612;BME280;6877;51.436;6.774;2023-04-23T03:44:59;100254.94;;;7.66;100.00
13612;BME280;6877;51.436;6.774;2023-04-23T03:47:26;100253.16;;;7.69;100.00
13612;BME280;6877;51.436;6.774;2023-04-23T03:49:57;100248.88;;;7.64;100.00
13612;BME280;6877;51.436;6.774;2023-04-23T03:52:28;100248.06;;;7.59;100.00
13612;BME280;6877;51.436;6.774;2023-04-23T03:55:01;100251.69;;;7.51;100.00
13612;BME280;6877;51.436;6.774;2023-04-23T03:57:28;100247.38;;;7.48;100.00
13612;BME280;6877;51.436;6.774;2023-04-23T03:59:54;100244.78;;;7.47;100.00
13612;BME280;6877;51.436;6.774;2023-04-23T04:02:21;100236.06;;;7.49;100.00
13612;BME280;6877;51.436;6.774;2023-04-23T04:04:48;100242.19;;;7.47;100.00
13612;BME280;6877;51.436;6.774;2023-04-23T04:07:16;100241.31;;;7.46;100.00
13612;BME280;6877;51.436;6.774;2023-04-23T04:09:43;100242.22;;;7.45;100.00
13612;BME280;6877;51.436;6.774;2023-04-23T04:12:10;100241.38;;;7.43;100.00
13612;BME280;6877;51.436;6.774;2023-04-23T04:14:39;100241.31;;;7.46;100.00
13612;BME280;6877;51.436;6.774;2023-04-23T04:17:11;100237.78;;;7.50;100.00
13612;BME280;6877;51.436;6.774;2023-04-23T04:19:37;100235.22;;;7.49;100.00
13612;BME280;6877;51.436;6.774;2023-04-23T04:22:04;100237.91;;;7.44;100.00
13612;BME280;6877;51.436;6.774;2023-04-23T04:24:32;100230.91;;;7.46;100.00
13612;BME280;6877;51.436;6.774;2023-04-23T04:27:03;100242.22;;;7.45;100.00
13612;BME280;6877;51.436;6.774;2023-04-23T04:29:36;100249.09;;;7.49;100.00
13612;BME280;6877;51.436;6.774;2023-04-23T04:32:02;100243.84;;;7.52;100.00
13612;BME280;6877;51.436;6.774;2023-04-23T04:34:30;100237.75;;;7.53;100.00
13612;BME280;6877;51.436;6.774;2023-04-23T04:36:56;100238.56;;;7.60;100.00
13612;BME280;6877;51.436;6.774;2023-04-23T04:39:23;100232.50;;;7.58;100.00
13612;BME280;6877;51.436;6.774;2023-04-23T04:41:49;100240.31;;;7.56;100.00
13612;BME280;6877;51.436;6.774;2023-04-23T04:44:16;100237.75;;;7.53;100.00
13612;BME280;6877;51.436;6.774;2023-04-23T04:46:42;100250.72;;;7.58;100.00
13612;BME280;6877;51.436;6.774;2023-04-23T04:49:09;100246.41;;;7.57;100.00
13612;BME280;6877;51.436;6.774;2023-04-23T04:51:37;100248.06;;;7.59;100.00
13612;BME280;6877;51.436;6.774;2023-04-23T04:54:04;100250.63;;;7.64;100.00
13612;BME280;6877;51.436;6.774;2023-04-23T04:56:33;100260.06;;;7.73;100.00
13612;BME280;6877;51.436;6.774;2023-04-23T04:59:00;100255.56;;;7.81;100.00
13612;BME280;6877;51.436;6.774;2023-04-23T05:01:32;100250.19;;;7.95;100.00
13612;BME280;6877;51.436;6.774;2023-04-23T05:03:58;100260.31;;;8.10;100.00
13612;BME280;6877;51.436;6.774;2023-04-23T05:06:25;100252.06;;;8.39;100.00
13612;BME280;6877;51.436;6.774;2023-04-23T05:08:51;100250.59;;;8.72;100.00
13612;BME280;6877;51.436;6.774;2023-04-23T05:11:22;100255.94;;;9.10;100.00
13612;BME280;6877;51.436;6.774;2023-04-23T05:13:50;100258.72;;;9.44;100.00
13612;BME280;6877;51.436;6.774;2023-04-23T05:16:17;100251.47;;;9.57;100.00
13612;BME280;6877;51.436;6.774;2023-04-23T05:18:44;100255.56;;;9.68;100.00
13612;BME280;6877;51.436;6.774;2023-04-23T05:21:11;100259.75;;;9.74;100.00
13612;BME280;6877;51.436;6.774;2023-04-23T05:23:37;100260.59;;;9.76;100.00
13612;BME280;6877;51.436;6.774;2023-04-23T05:26:09;100264.84;;;9.80;100.00
13612;BME280;6877;51.436;6.774;2023-04-23T05:28:36;100262.00;;;9.91;100.00
13612;BME280;6877;51.436;6.774;2023-04-23T05:31:02;100259.47;;;9.88;100.00
13612;BME280;6877;51.436;6.774;2023-04-23T05:33:29;100258.56;;;9.89;100.00
13612;BME280;6877;51.436;6.774;2023-04-23T05:36:02;100260.28;;;9.90;100.00
13612;BME280;6877;51.436;6.774;2023-04-23T05:38:28;100249.09;;;9.83;100.00
13612;BME280;6877;51.436;6.774;2023-04-23T05:40:58;100252.53;;;9.85;100.00
13612;BME280;6877;51.436;6.774;2023-04-23T05:43:24;100252.47;;;9.88;100.00
13612;BME280;6877;51.436;6.774;2023-04-23T05:45:55;100248.88;;;9.92;100.00
13612;BME280;6877;51.436;6.774;2023-04-23T05:48:27;100249.75;;;9.93;100.00
13612;BME280;6877;51.436;6.774;2023-04-23T05:50:53;100238.41;;;9.94;100.00
13612;BME280;6877;51.436;6.774;2023-04-23T05:53:26;100249.78;;;9.91;100.00
13612;BME280;6877;51.436;6.774;2023-04-23T05:55:52;100256.78;;;9.91;100.00
13612;BME280;6877;51.436;6.774;2023-04-23T05:58:19;100250.84;;;9.83;100.00
13612;BME280;6877;51.436;6.774;2023-04-23T06:00:45;100243.16;;;9.77;100.00
13612;BME280;6877;51.436;6.774;2023-04-23T06:03:12;100252.75;;;9.76;100.00
13612;BME280;6877;51.436;6.774;2023-04-23T06:05:38;100243.06;;;9.81;100.00
13612;BME280;6877;51.436;6.774;2023-04-23T06:08:05;100249.91;;;9.87;100.00
13612;BME280;6877;51.436;6.774;2023-04-23T06:10:31;100254.91;;;9.96;100.00
13612;BME280;6877;51.436;6.774;2023-04-23T06:13:02;100259.06;;;10.05;100.00
13612;BME280;6877;51.436;6.774;2023-04-23T06:15:29;100255.31;;;10.15;100.00
13612;BME280;6877;51.436;6.774;2023-04-23T06:17:55;100257.69;;;10.24;100.00
13612;BME280;6877;51.436;6.774;2023-04-23T06:20:28;100259.41;;;10.27;100.00
13612;BME280;6877;51.436;6.774;2023-04-23T06:22:54;100256.63;;;10.34;100.00
13612;BME280;6877;51.436;6.774;2023-04-23T06:25:21;100262.41;;;10.46;100.00
13612;BME280;6877;51.436;6.774;2023-04-23T06:27:52;100257.94;;;10.51;100.00
13612;BME280;6877;51.436;6.774;2023-04-23T06:30:23;100258.72;;;10.54;100.00
13612;BME280;6877;51.436;6.774;2023-04-23T06:32:55;100249.78;;;10.63;100.00
13612;BME280;6877;51.436;6.774;2023-04-23T06:35:26;100246.03;;;10.72;100.00
13612;BME280;6877;51.436;6.774;2023-04-23T06:37:52;100249.31;;;10.80;100.00
13612;BME280;6877;51.436;6.774;2023-04-23T06:40:19;100253.59;;;10.82;100.00
13612;BME280;6877;51.436;6.774;2023-04-23T06:42:45;100248.31;;;10.84;100.00
13612;BME280;6877;51.436;6.774;2023-04-23T06:45:18;100240.28;;;10.90;100.00
13612;BME280;6877;51.436;6.774;2023-04-23T06:47:44;100245.25;;;11.01;100.00
13612;BME280;6877;51.436;6.774;2023-04-23T06:50:11;100242.09;;;11.19;100.00
13612;BME280;6877;51.436;6.774;2023-04-23T06:52:37;100245.81;;;11.40;100.00
13612;BME280;6877;51.436;6.774;2023-04-23T06:55:09;100247.03;;;11.58;100.00
13612;BME280;6877;51.436;6.774;2023-04-23T06:57:35;100246.28;;;11.82;100.00
13612;BME280;6877;51.436;6.774;2023-04-23T07:00:05;100237.03;;;12.25;100.00
13612;BME280;6877;51.436;6.774;2023-04-23T07:02:39;100238.19;;;12.92;100.00
13612;BME280;6877;51.436;6.774;2023-04-23T07:05:10;100234.75;;;13.38;100.00
13612;BME280;6877;51.436;6.774;2023-04-23T07:07:39;100243.03;;;13.95;100.00
13612;BME280;6877;51.436;6.774;2023-04-23T07:10:09;100238.34;;;15.24;100.00
13612;BME280;6877;51.436;6.774;2023-04-23T07:12:39;100243.78;;;16.32;99.77
13612;BME280;6877;51.436;6.774;2023-04-23T07:15:11;100234.84;;;17.02;93.90
13612;BME280;6877;51.436;6.774;2023-04-23T07:17:42;100234.41;;;17.43;87.41
13612;BME280;6877;51.436;6.774;2023-04-23T07:20:09;100233.03;;;17.52;85.25
13612;BME280;6877;51.436;6.774;2023-04-23T07:22:35;100229.88;;;17.45;82.01
13612;BME280;6877;51.436;6.774;2023-04-23T07:25:02;100225.38;;;17.31;81.24
13612;BME280;6877;51.436;6.774;2023-04-23T07:27:34;100226.72;;;17.54;78.12
13612;BME280;6877;51.436;6.774;2023-04-23T07:30:01;100225.72;;;17.89;79.16
13612;BME280;6877;51.436;6.774;2023-04-23T07:32:28;100215.75;;;18.08;77.57
13612;BME280;6877;51.436;6.774;2023-04-23T07:34:59;100222.47;;;18.44;74.14
13612;BME280;6877;51.436;6.774;2023-04-23T07:37:25;100215.78;;;18.52;73.20
13612;BME280;6877;51.436;6.774;2023-04-23T07:39:52;100215.22;;;18.62;69.56
13612;BME280;6877;51.436;6.774;2023-04-23T07:42:19;100212.38;;;18.95;70.17
13612;BME280;6877;51.436;6.774;2023-04-23T07:44:45;100217.84;;;19.06;68.49
13612;BME280;6877;51.436;6.774;2023-04-23T07:47:12;100217.25;;;19.30;66.20
13612;BME280;6877;51.436;6.774;2023-04-23T07:49:43;100216.44;;;20.50;65.10
13612;BME280;6877;51.436;6.774;2023-04-23T07:52:10;100220.25;;;21.23;59.87
13612;BME280;6877;51.436;6.774;2023-04-23T07:54:36;100199.97;;;22.42;58.44
13612;BME280;6877;51.436;6.774;2023-04-23T07:57:03;100215.59;;;23.81;52.71
13612;BME280;6877;51.436;6.774;2023-04-23T07:59:29;100218.88;;;25.41;48.90
13612;BME280;6877;51.436;6.774;2023-04-23T08:01:55;100217.91;;;26.88;46.30
13612;BME280;6877;51.436;6.774;2023-04-23T08:04:27;100234.25;;;28.23;41.18
13612;BME280;6877;51.436;6.774;2023-04-23T08:06:53;100215.28;;;28.95;37.38
13612;BME280;6877;51.436;6.774;2023-04-23T08:09:20;100215.81;;;29.41;35.06
13612;BME280;6877;51.436;6.774;2023-04-23T08:11:46;100209.84;;;29.63;34.48
13612;BME280;6877;51.436;6.774;2023-04-23T08:14:13;100219.38;;;30.41;33.61
13612;BME280;6877;51.436;6.774;2023-04-23T08:16:39;100222.13;;;31.52;32.12
13612;BME280;6877;51.436;6.774;2023-04-23T08:19:06;100221.50;;;32.42;30.37
13612;BME280;6877;51.436;6.774;2023-04-23T08:21:35;100214.44;;;33.09;28.99
13612;BME280;6877;51.436;6.774;2023-04-23T08:24:01;100215.72;;;34.00;28.25
13612;BME280;6877;51.436;6.774;2023-04-23T08:26:36;100212.47;;;34.33;26.95
13612;BME280;6877;51.436;6.774;2023-04-23T08:29:04;100202.84;;;34.02;26.58
13612;BME280;6877;51.436;6.774;2023-04-23T08:31:31;100202.69;;;34.10;26.32
13612;BME280;6877;51.436;6.774;2023-04-23T08:33:57;100206.59;;;32.46;27.02
13612;BME280;6877;51.436;6.774;2023-04-23T08:36:24;100210.28;;;32.83;27.59
13612;BME280;6877;51.436;6.774;2023-04-23T08:38:52;100202.56;;;34.19;26.28
13612;BME280;6877;51.436;6.774;2023-04-23T08:41:22;100211.00;;;34.87;24.37
13612;BME280;6877;51.436;6.774;2023-04-23T08:44:02;100215.44;;;35.97;24.51
13612;BME280;6877;51.436;6.774;2023-04-23T08:46:35;100222.78;;;37.03;23.39
13612;BME280;6877;51.436;6.774;2023-04-23T08:49:12;100220.81;;;35.09;22.76
13612;BME280;6877;51.436;6.774;2023-04-23T08:51:53;100209.56;;;34.56;25.58
13612;BME280;6877;51.436;6.774;2023-04-23T08:54:27;100211.56;;;34.75;24.51
13612;BME280;6877;51.436;6.774;2023-04-23T08:56:55;100216.94;;;34.97;23.36
13612;BME280;6877;51.436;6.774;2023-04-23T08:59:25;100209.84;;;33.09;25.90
13612;BME280;6877;51.436;6.774;2023-04-23T09:01:56;100209.16;;;32.77;25.27
13612;BME280;6877;51.436;6.774;2023-04-23T09:04:29;100211.16;;;35.07;24.65
13612;BME280;6877;51.436;6.774;2023-04-23T09:06:56;100209.00;;;35.02;23.08
13612;BME280;6877;51.436;6.774;2023-04-23T09:09:26;100211.28;;;33.92;24.25
13612;BME280;6877;51.436;6.774;2023-04-23T09:11:54;100196.22;;;31.35;26.92
13612;BME280;6877;51.436;6.774;2023-04-23T09:14:24;100192.00;;;29.78;29.65
13612;BME280;6877;51.436;6.774;2023-04-23T09:16:51;100176.00;;;30.51;28.62
13612;BME280;6877;51.436;6.774;2023-04-23T09:19:18;100187.72;;;32.15;26.36
13612;BME280;6877;51.436;6.774;2023-04-23T09:21:45;100191.34;;;31.22;27.68
13612;BME280;6877;51.436;6.774;2023-04-23T09:24:12;100191.94;;;31.72;27.22
13612;BME280;6877;51.436;6.774;2023-04-23T09:26:47;100185.63;;;32.93;24.87
13612;BME280;6877;51.436;6.774;2023-04-23T09:29:22;100188.25;;;33.88;24.46
13612;BME280;6877;51.436;6.774;2023-04-23T09:31:54;100184.38;;;33.98;23.44
13612;BME280;6877;51.436;6.774;2023-04-23T09:34:23;100187.59;;;33.14;24.99
13612;BME280;6877;51.436;6.774;2023-04-23T09:36:51;100175.53;;;31.73;25.13
13612;BME280;6877;51.436;6.774;2023-04-23T09:39:21;100174.91;;;31.32;25.17
13612;BME280;6877;51.436;6.774;2023-04-23T09:41:50;100166.47;;;31.27;26.13
13612;BME280;6877;51.436;6.774;2023-04-23T09:44:18;100171.75;;;30.81;26.97
13612;BME280;6877;51.436;6.774;2023-04-23T09:46:44;100169.63;;;29.86;27.42
13612;BME280;6877;51.436;6.774;2023-04-23T09:49:12;100173.50;;;27.94;29.71
13612;BME280;6877;51.436;6.774;2023-04-23T09:51:40;100163.19;;;27.26;30.55
13612;BME280;6877;51.436;6.774;2023-04-23T09:54:14;100164.44;;;27.68;31.06
13612;BME280;6877;51.436;6.774;2023-04-23T09:56:42;100170.41;;;27.89;30.87
13612;BME280;6877;51.436;6.774;2023-04-23T09:59:25;100151.13;;;28.64;29.32
13612;BME280;6877;51.436;6.774;2023-04-23T10:01:53;100161.94;;;29.57;27.51
13612;BME280;6877;51.436;6.774;2023-04-23T10:04:24;100153.34;;;27.99;29.39
13612;BME280;6877;51.436;6.774;2023-04-23T10:06:55;100151.69;;;27.34;30.96
13612;BME280;6877;51.436;6.774;2023-04-23T10:09:27;100141.59;;;28.44;29.65
13612;BME280;6877;51.436;6.774;2023-04-23T10:11:56;100159.66;;;29.70;27.53
13612;BME280;6877;51.436;6.774;2023-04-23T10:14:25;100140.25;;;30.32;26.73
13612;BME280;6877;51.436;6.774;2023-04-23T10:16:58;100136.81;;;30.63;26.33
13612;BME280;6877;51.436;6.774;2023-04-23T10:19:31;100154.13;;;30.05;26.00
13612;BME280;6877;51.436;6.774;2023-04-23T10:22:07;100134.97;;;28.38;28.36
13612;BME280;6877;51.436;6.774;2023-04-23T10:24:38;100133.88;;;27.51;29.51
13612;BME280;6877;51.436;6.774;2023-04-23T10:27:10;100117.53;;;26.05;31.25
13612;BME280;6877;51.436;6.774;2023-04-23T10:29:37;100114.78;;;25.17;33.08
13612;BME280;6877;51.436;6.774;2023-04-23T10:32:09;100117.25;;;25.09;32.68
13612;BME280;6877;51.436;6.774;2023-04-23T10:34:38;100123.63;;;26.54;31.42
13612;BME280;6877;51.436;6.774;2023-04-23T10:37:05;100130.75;;;27.56;29.24
13612;BME280;6877;51.436;6.774;2023-04-23T10:39:34;100116.78;;;28.58;28.23
13612;BME280;6877;51.436;6.774;2023-04-23T10:42:06;100111.91;;;28.96;27.38
13612;BME280;6877;51.436;6.774;2023-04-23T10:44:36;100112.22;;;28.32;28.11
13612;BME280;6877;51.436;6.774;2023-04-23T10:47:13;100103.69;;;28.63;28.11
13612;BME280;6877;51.436;6.774;2023-04-23T10:49:40;100102.09;;;27.64;29.07
13612;BME280;6877;51.436;6.774;2023-04-23T10:52:12;100089.13;;;26.69;30.55
13612;BME280;6877;51.436;6.774;2023-04-23T10:54:42;100085.66;;;26.86;31.22
13612;BME280;6877;51.436;6.774;2023-04-23T10:57:10;100090.44;;;26.65;31.15
13612;BME280;6877;51.436;6.774;2023-04-23T10:59:50;100089.78;;;27.08;30.32
13612;BME280;6877;51.436;6.774;2023-04-23T11:02:17;100093.53;;;26.60;30.53
13612;BME280;6877;51.436;6.774;2023-04-23T11:04:53;100080.31;;;26.39;30.55
13612;BME280;6877;51.436;6.774;2023-04-23T11:07:31;100074.69;;;26.70;30.48
13612;BME280;6877;51.436;6.774;2023-04-23T11:09:58;100067.88;;;25.91;31.60
13612;BME280;6877;51.436;6.774;2023-04-23T11:14:58;100059.19;;;23.98;35.38
13612;BME280;6877;51.436;6.774;2023-04-23T11:22:43;100054.41;;;23.60;34.69
13612;BME280;6877;51.436;6.774;2023-04-23T11:25:19;100048.91;;;23.08;35.40
13612;BME280;6877;51.436;6.774;2023-04-23T11:27:46;100047.34;;;22.72;36.93
13612;BME280;6877;51.436;6.774;2023-04-23T11:30:15;100033.75;;;21.96;38.60
13612;BME280;6877;51.436;6.774;2023-04-23T11:32:48;100027.22;;;22.01;39.06
13612;BME280;6877;51.436;6.774;2023-04-23T11:35:21;100027.47;;;22.09;38.32
13612;BME280;6877;51.436;6.774;2023-04-23T11:37:53;100013.28;;;21.86;38.32
13612;BME280;6877;51.436;6.774;2023-04-23T11:40:20;100021.84;;;21.78;38.55
13612;BME280;6877;51.436;6.774;2023-04-23T11:42:51;100025.16;;;21.82;38.54
13612;BME280;6877;51.436;6.774;2023-04-23T11:45:24;100019.72;;;22.06;38.16
13612;BME280;6877;51.436;6.774;2023-04-23T11:47:57;100013.72;;;22.26;37.94
13612;BME280;6877;51.436;6.774;2023-04-23T11:50:30;100006.66;;;22.14;37.50
13612;BME280;6877;51.436;6.774;2023-04-23T11:53:04;100010.72;;;21.84;37.47
13612;BME280;6877;51.436;6.774;2023-04-23T11:55:33;100005.84;;;21.32;37.77
13612;BME280;6877;51.436;6.774;2023-04-23T11:58:00;100008.72;;;21.04;39.17
13612;BME280;6877;51.436;6.774;2023-04-23T12:00:31;99997.56;;;20.99;39.74
13612;BME280;6877;51.436;6.774;2023-04-23T12:03:00;99989.03;;;20.83;39.17
13612;BME280;6877;51.436;6.774;2023-04-23T12:05:40;100001.34;;;20.97;39.24
13612;BME280;6877;51.436;6.774;2023-04-23T12:08:11;99998.53;;;20.98;38.27
13612;BME280;6877;51.436;6.774;2023-04-23T12:10:52;99989.09;;;20.94;37.94
13612;BME280;6877;51.436;6.774;2023-04-23T12:13:26;99983.53;;;21.21;37.30
13612;BME280;6877;51.436;6.774;2023-04-23T12:15:57;99977.66;;;21.29;36.77
13612;BME280;6877;51.436;6.774;2023-04-23T12:18:34;99970.91;;;21.12;36.79
13612;BME280;6877;51.436;6.774;2023-04-23T12:21:11;99955.31;;;21.08;37.12
13612;BME280;6877;51.436;6.774;2023-04-23T12:23:40;99955.75;;;21.01;37.12
13612;BME280;6877;51.436;6.774;2023-04-23T12:26:11;99967.19;;;21.15;37.02
13612;BME280;6877;51.436;6.774;2023-04-23T12:28:53;99967.19;;;21.39;36.19
13612;BME280;6877;51.436;6.774;2023-04-23T12:31:25;99966.41;;;21.83;35.61
13612;BME280;6877;51.436;6.774;2023-04-23T12:36:34;99956.56;;;22.74;33.53
13612;BME280;6877;51.436;6.774;2023-04-23T12:41:55;99946.69;;;22.85;34.06
13612;BME280;6877;51.436;6.774;2023-04-23T12:44:23;99939.72;;;22.73;34.09
13612;BME280;6877;51.436;6.774;2023-04-23T12:47:00;99946.09;;;22.27;34.60
13612;BME280;6877;51.436;6.774;2023-04-23T12:49:32;99938.06;;;21.71;35.33
13612;BME280;6877;51.436;6.774;2023-04-23T12:52:00;99923.03;;;21.47;35.86
13612;BME280;6877;51.436;6.774;2023-04-23T12:54:29;99931.16;;;21.57;36.37
13612;BME280;6877;51.436;6.774;2023-04-23T12:56:59;99931.78;;;21.72;36.10
13612;BME280;6877;51.436;6.774;2023-04-23T12:59:29;99920.84;;;21.52;35.41
13612;BME280;6877;51.436;6.774;2023-04-23T13:02:01;99919.16;;;21.51;35.40
13612;BME280;6877;51.436;6.774;2023-04-23T13:04:30;99920.78;;;21.19;36.22
13612;BME280;6877;51.436;6.774;2023-04-23T13:06:56;99912.97;;;21.04;35.17
13612;BME280;6877;51.436;6.774;2023-04-23T13:09:23;99909.25;;;20.83;36.00
13612;BME280;6877;51.436;6.774;2023-04-23T13:11:50;99899.06;;;20.77;36.34
13612;BME280;6877;51.436;6.774;2023-04-23T13:14:16;99896.94;;;20.82;35.75
13612;BME280;6877;51.436;6.774;2023-04-23T13:16:48;99895.13;;;20.58;35.70
13612;BME280;6877;51.436;6.774;2023-04-23T13:19:14;99894.28;;;20.58;36.15
13612;BME280;6877;51.436;6.774;2023-04-23T13:21:42;99892.13;;;20.63;36.21
13612;BME280;6877;51.436;6.774;2023-04-23T13:24:08;99887.44;;;20.67;35.01